Time;durP1;ratioP1;P1;durP2;ratioP2;P2;SDS_P1;SDS_P2;PMS_P1;PMS_P2;Temp;Humidity;BMP_temperature;BMP_pressure;BME280_temperature;BME280_humidity;BME280_pressure;Samples;Min_cycle;Max_cycle;Signal;HPM_P1;HPM_P2
2022/12/09 00:01:33;;;;;;;6.10;5.40;;;1.40;99.90;;;;;;5093175;28;20408;-73
2022/12/09 00:03:59;;;;;;;6.87;5.73;;;1.40;99.90;;;;;;5092524;28;20169;-74
2022/12/09 00:06:26;;;;;;;8.00;5.47;;;1.40;99.90;;;;;;5092471;28;20216;-74
2022/12/09 00:08:53;;;;;;;6.00;5.40;;;1.40;99.90;;;;;;5092844;28;20530;-74
2022/12/09 00:11:19;;;;;;;6.23;5.43;;;1.40;99.90;;;;;;5093250;28;20404;-74
2022/12/09 00:13:49;;;;;;;6.90;5.20;;;1.50;99.90;;;;;;5093078;28;20419;-74
2022/12/09 00:16:15;;;;;;;6.23;5.13;;;1.40;99.90;;;;;;5093393;28;20414;-73
2022/12/09 00:18:42;;;;;;;6.87;4.70;;;1.50;99.90;;;;;;5093432;28;20783;-74
2022/12/09 00:21:27;;;;;;;6.23;4.70;;;1.50;99.90;;;;;;5092049;28;20947;-73
2022/12/09 00:23:55;;;;;;;6.23;5.10;;;1.40;99.90;;;;;;5092809;28;20482;-74
2022/12/09 00:26:22;;;;;;;4.27;3.87;;;1.40;99.90;;;;;;5092987;28;20889;-73
2022/12/09 00:28:48;;;;;;;7.40;4.90;;;1.40;99.90;;;;;;5091393;28;20817;-73
2022/12/09 00:31:20;;;;;;;4.87;4.43;;;1.40;99.90;;;;;;5093010;28;20413;-74
2022/12/09 00:33:46;;;;;;;6.63;4.70;;;1.30;99.90;;;;;;5092841;28;20405;-72
2022/12/09 00:36:18;;;;;;;6.70;6.00;;;1.30;99.90;;;;;;5092144;28;20882;-74
2022/12/09 00:38:43;;;;;;;6.23;5.47;;;1.20;99.90;;;;;;5092855;28;20193;-74
2022/12/09 00:41:10;;;;;;;5.77;5.17;;;1.20;99.90;;;;;;5092596;28;20412;-73
2022/12/09 00:43:36;;;;;;;5.70;5.10;;;1.20;99.90;;;;;;5093062;28;20219;-73
2022/12/09 00:46:02;;;;;;;6.20;5.60;;;1.10;99.90;;;;;;5092772;28;20455;-73
2022/12/09 00:48:28;;;;;;;6.33;5.73;;;1.20;99.90;;;;;;5091263;28;20222;-73
2022/12/09 00:50:54;;;;;;;7.37;6.33;;;1.20;99.90;;;;;;5092264;28;20849;-74
2022/12/09 00:53:20;;;;;;;8.43;7.10;;;1.30;99.90;;;;;;5091829;28;20403;-73
2022/12/09 00:55:46;;;;;;;7.60;6.90;;;1.30;99.90;;;;;;5092694;28;20877;-73
2022/12/09 00:58:12;;;;;;;8.90;8.10;;;1.40;99.90;;;;;;5092520;28;20196;-74
2022/12/09 01:00:38;;;;;;;9.27;8.33;;;1.30;99.90;;;;;;5090868;28;20632;-74
2022/12/09 01:03:04;;;;;;;9.43;8.27;;;1.20;99.90;;;;;;5092467;28;20455;-73
2022/12/09 01:05:29;;;;;;;7.70;6.70;;;1.20;99.90;;;;;;5092513;28;20468;-74
2022/12/09 01:07:55;;;;;;;8.07;6.83;;;1.20;99.90;;;;;;5093450;28;20291;-74
2022/12/09 01:10:20;;;;;;;7.23;6.40;;;1.30;99.90;;;;;;5095878;28;20168;-74
2022/12/09 01:12:46;;;;;;;9.10;7.73;;;1.20;99.90;;;;;;5096009;28;20168;-74
2022/12/09 01:15:12;;;;;;;8.57;7.60;;;1.20;99.90;;;;;;5096070;28;20265;-74
2022/12/09 01:17:38;;;;;;;10.30;8.70;;;1.10;99.90;;;;;;5095873;28;20483;-74
2022/12/09 01:20:05;;;;;;;8.63;7.60;;;1.10;99.90;;;;;;5094790;28;20181;-74
2022/12/09 01:22:31;;;;;;;10.37;7.90;;;1.00;99.90;;;;;;5094266;28;20493;-74
2022/12/09 01:24:57;;;;;;;9.30;7.80;;;1.00;99.90;;;;;;5095892;28;20896;-73
2022/12/09 01:27:22;;;;;;;10.03;8.03;;;1.00;99.90;;;;;;5095561;28;20716;-73
2022/12/09 01:29:48;;;;;;;8.27;7.40;;;1.00;99.90;;;;;;5096053;28;20218;-74
2022/12/09 01:32:13;;;;;;;8.73;7.83;;;0.90;99.90;;;;;;5095818;28;20192;-74
2022/12/09 01:34:39;;;;;;;9.83;7.90;;;1.00;99.90;;;;;;5095288;28;20176;-74
2022/12/09 01:37:05;;;;;;;9.57;7.80;;;1.00;99.90;;;;;;5094800;28;20512;-74
2022/12/09 01:39:30;;;;;;;8.27;7.47;;;1.00;99.90;;;;;;5095632;28;20268;-73
2022/12/09 01:41:56;;;;;;;8.50;7.50;;;1.00;99.90;;;;;;5095314;28;20550;-73
2022/12/09 01:44:24;;;;;;;9.07;7.57;;;1.00;99.90;;;;;;5093806;28;20275;-73
2022/12/09 01:46:54;;;;;;;8.80;7.23;;;0.90;99.90;;;;;;5095352;28;20284;-74
2022/12/09 01:49:29;;;;;;;8.37;6.80;;;0.80;99.90;;;;;;5095856;28;20493;-74
2022/12/09 01:52:15;;;;;;;9.40;8.43;;;0.80;99.90;;;;;;5094696;28;20424;-74
2022/12/09 01:54:43;;;;;;;7.20;6.50;;;0.80;99.90;;;;;;5095032;28;20468;-74
2022/12/09 01:57:09;;;;;;;7.60;6.73;;;0.70;99.90;;;;;;5095164;28;20993;-73
2022/12/09 01:59:36;;;;;;;7.50;5.60;;;0.70;99.90;;;;;;5095302;28;20530;-74
2022/12/09 02:02:04;;;;;;;6.17;5.60;;;0.80;99.90;;;;;;5094789;28;20407;-74
2022/12/09 02:04:35;;;;;;;9.50;6.33;;;0.80;99.90;;;;;;5094613;28;20467;-73
2022/12/09 02:07:04;;;;;;;5.57;5.10;;;0.80;99.90;;;;;;5094145;28;20804;-74
2022/12/09 02:09:32;;;;;;;9.50;6.27;;;0.80;99.90;;;;;;5094704;28;20392;-74
2022/12/09 02:12:25;;;;;;;6.93;5.93;;;0.80;99.90;;;;;;5093277;28;20407;-74
2022/12/09 02:15:02;;;;;;;8.60;6.77;;;0.80;99.90;;;;;;5094759;28;20946;-74
2022/12/09 02:17:38;;;;;;;5.47;4.97;;;0.80;99.90;;;;;;5094679;28;20930;-74
2022/12/09 02:20:28;;;;;;;12.20;7.57;;;0.80;99.90;;;;;;5093324;28;20406;-73
2022/12/09 02:23:02;;;;;;;7.97;6.80;;;0.80;99.90;;;;;;5093832;28;20459;-73
2022/12/09 02:25:47;;;;;;;7.37;6.20;;;0.70;99.90;;;;;;5094811;28;20447;-73
2022/12/09 02:28:33;;;;;;;9.03;6.10;;;0.70;99.90;;;;;;5094703;28;20755;-74
2022/12/09 02:31:11;;;;;;;7.50;6.70;;;0.70;99.90;;;;;;5094362;28;20407;-74
2022/12/09 02:33:56;;;;;;;7.40;6.60;;;0.80;99.90;;;;;;5093195;28;20782;-74
2022/12/09 02:36:26;;;;;;;5.90;5.40;;;0.80;99.90;;;;;;5093716;28;20475;-75
2022/12/09 02:38:52;;;;;;;6.63;6.03;;;0.70;99.90;;;;;;5094739;28;20429;-74
2022/12/09 02:41:25;;;;;;;8.20;6.40;;;0.60;99.90;;;;;;5094339;28;20410;-74
2022/12/09 02:44:00;;;;;;;6.77;5.67;;;0.60;99.90;;;;;;5094476;28;20358;-73
2022/12/09 02:46:27;;;;;;;6.10;5.50;;;0.60;99.90;;;;;;5094174;28;20806;-74
2022/12/09 02:48:55;;;;;;;7.47;5.80;;;0.60;99.90;;;;;;5091999;28;20495;-75
2022/12/09 02:51:24;;;;;;;6.10;5.40;;;0.60;99.90;;;;;;5094210;28;20410;-72
2022/12/09 02:53:54;;;;;;;6.03;5.07;;;0.60;99.90;;;;;;5094114;28;20438;-73
2022/12/09 02:56:21;;;;;;;7.60;6.40;;;0.60;99.90;;;;;;5094273;28;20405;-74
2022/12/09 02:58:50;;;;;;;6.17;5.50;;;0.60;99.90;;;;;;5093855;28;20429;-73
2022/12/09 03:01:30;;;;;;;7.63;6.50;;;0.70;99.90;;;;;;5092570;28;20818;-74
2022/12/09 03:03:56;;;;;;;6.20;5.60;;;0.80;99.90;;;;;;5094492;28;20437;-74
2022/12/09 03:06:27;;;;;;;6.10;5.50;;;0.80;99.90;;;;;;5093767;28;20467;-74
2022/12/09 03:09:17;;;;;;;7.40;6.60;;;0.80;99.90;;;;;;5093989;28;20260;-73
2022/12/09 03:11:43;;;;;;;8.03;6.77;;;0.70;99.90;;;;;;5094176;28;20414;-74
2022/12/09 03:14:15;;;;;;;7.37;6.67;;;0.60;99.90;;;;;;5110499;22;20493;-73
2022/12/09 03:16:51;;;;;;;7.33;6.47;;;0.60;99.90;;;;;;5056198;28;20427;-72
2022/12/09 03:19:42;;;;;;;7.10;5.57;;;0.60;99.90;;;;;;5073947;28;20416;-72
2022/12/09 03:22:12;;;;;;;8.07;6.10;;;0.50;99.90;;;;;;5073007;28;20412;-72
2022/12/09 03:24:44;;;;;;;7.03;6.33;;;0.50;99.90;;;;;;5074827;28;20440;-73
2022/12/09 03:27:16;;;;;;;7.43;6.73;;;0.60;99.90;;;;;;5074621;28;20988;-73
2022/12/09 03:29:46;;;;;;;8.23;6.93;;;0.60;99.90;;;;;;5074172;28;20482;-75
2022/12/09 03:32:16;;;;;;;7.77;7.07;;;0.50;99.90;;;;;;5074727;28;20444;-73
2022/12/09 03:34:45;;;;;;;7.77;6.97;;;0.60;99.90;;;;;;5056262;28;20422;-73
2022/12/09 03:37:17;;;;;;;7.03;6.33;;;0.50;99.90;;;;;;5073784;28;20464;-74
2022/12/09 03:39:44;;;;;;;8.60;7.70;;;0.50;99.90;;;;;;5056017;28;20408;-73
2022/12/09 03:42:16;;;;;;;9.07;7.33;;;0.40;99.90;;;;;;5073840;28;20484;-73
2022/12/09 03:44:48;;;;;;;9.37;8.37;;;0.40;99.90;;;;;;5073971;28;20451;-73
2022/12/09 03:47:13;;;;;;;7.50;6.70;;;0.40;99.90;;;;;;5074339;28;21000;-73
2022/12/09 03:49:39;;;;;;;9.10;8.20;;;0.40;99.90;;;;;;5074208;28;20491;-73
2022/12/09 03:52:31;;;;;;;11.70;8.23;;;0.50;99.90;;;;;;5073388;28;20184;-73
2022/12/09 03:55:09;;;;;;;11.00;8.50;;;0.40;99.90;;;;;;5041442;28;20193;-73
2022/12/09 03:57:39;;;;;;;9.70;8.80;;;0.40;99.90;;;;;;5054083;28;20394;-73
2022/12/09 04:00:06;;;;;;;10.67;8.97;;;0.30;99.90;;;;;;5053938;28;20386;-73
2022/12/09 04:02:31;;;;;;;9.03;8.13;;;0.40;99.90;;;;;;5053766;28;20457;-73
2022/12/09 04:04:57;;;;;;;11.50;9.70;;;0.40;99.90;;;;;;5053530;28;20436;-73
2022/12/09 04:07:22;;;;;;;10.77;8.70;;;0.50;99.90;;;;;;5035073;28;20197;-73
2022/12/09 04:09:48;;;;;;;11.30;9.10;;;0.50;99.90;;;;;;5053133;28;20163;-73
2022/12/09 04:12:14;;;;;;;14.30;9.60;;;0.60;99.90;;;;;;5053594;28;20170;-73
2022/12/09 04:14:39;;;;;;;10.17;7.97;;;0.60;99.90;;;;;;5053398;28;20204;-74
2022/12/09 04:17:05;;;;;;;10.67;9.57;;;0.60;99.90;;;;;;5035723;28;20174;-74
2022/12/09 04:19:30;;;;;;;10.20;9.20;;;0.60;99.90;;;;;;5035193;28;20230;-73
2022/12/09 04:21:56;;;;;;;10.00;9.00;;;0.60;99.90;;;;;;5041711;28;20213;-74
2022/12/09 04:24:21;;;;;;;10.37;9.27;;;0.50;99.90;;;;;;5073026;28;20200;-74
2022/12/09 04:26:48;;;;;;;10.33;8.57;;;0.50;99.90;;;;;;5073588;28;20218;-74
2022/12/09 04:29:13;;;;;;;15.23;9.00;;;0.60;99.90;;;;;;5073033;28;20169;-74
2022/12/09 04:31:39;;;;;;;12.13;8.40;;;0.60;99.90;;;;;;5073038;28;20440;-74
2022/12/09 04:34:04;;;;;;;9.63;8.63;;;0.70;99.90;;;;;;5055222;28;20188;-74
2022/12/09 04:36:30;;;;;;;10.20;8.80;;;0.70;99.90;;;;;;5073182;28;20244;-74
2022/12/09 04:38:56;;;;;;;9.00;8.03;;;0.60;99.90;;;;;;5072998;28;20219;-74
2022/12/09 04:41:22;;;;;;;9.70;8.77;;;0.60;99.90;;;;;;5073123;28;20169;-73
2022/12/09 04:43:47;;;;;;;11.00;9.30;;;0.50;99.90;;;;;;5076512;28;20187;-74
2022/12/09 04:46:15;;;;;;;10.17;8.17;;;0.60;99.90;;;;;;5076788;28;20209;-74
2022/12/09 04:48:41;;;;;;;10.63;8.87;;;0.60;99.90;;;;;;5076905;28;20410;-74
2022/12/09 04:51:08;;;;;;;9.50;8.47;;;0.60;99.90;;;;;;5058785;28;20540;-73
2022/12/09 04:53:34;;;;;;;11.00;8.73;;;0.60;99.90;;;;;;5076484;28;20449;-73
2022/12/09 04:56:10;;;;;;;9.57;8.13;;;0.60;99.90;;;;;;5053863;28;20430;-73
2022/12/09 04:58:35;;;;;;;9.10;7.63;;;0.70;99.90;;;;;;5037338;28;20812;-74
2022/12/09 05:01:08;;;;;;;8.87;7.77;;;0.60;99.90;;;;;;5019438;28;20449;-74
2022/12/09 05:03:34;;;;;;;8.93;8.00;;;0.70;99.90;;;;;;5019360;28;20262;-74
2022/12/09 05:06:04;;;;;;;11.07;8.00;;;0.70;99.90;;;;;;5037222;28;20430;-74
2022/12/09 05:08:29;;;;;;;8.50;7.60;;;0.70;99.90;;;;;;5036099;28;20420;-74
2022/12/09 05:10:55;;;;;;;9.53;8.23;;;0.70;99.90;;;;;;5036542;28;20412;-74
2022/12/09 05:13:20;;;;;;;9.70;8.47;;;0.70;99.90;;;;;;5036456;28;20220;-74
2022/12/09 05:15:46;;;;;;;9.00;8.03;;;0.70;99.90;;;;;;5036130;28;20294;-74
2022/12/09 05:18:11;;;;;;;8.80;7.57;;;0.70;99.90;;;;;;5036328;28;20182;-73
2022/12/09 05:20:38;;;;;;;9.03;7.60;;;0.60;99.90;;;;;;5037047;28;20177;-73
2022/12/09 05:23:04;;;;;;;7.37;6.47;;;0.60;99.90;;;;;;5068529;28;20663;-73
2022/12/09 05:25:29;;;;;;;7.53;6.70;;;0.60;99.90;;;;;;5076162;28;20428;-74
2022/12/09 05:27:55;;;;;;;8.53;6.87;;;0.60;99.90;;;;;;5058048;28;20686;-73
2022/12/09 05:30:20;;;;;;;7.23;6.53;;;0.70;99.90;;;;;;5056108;28;20174;-73
2022/12/09 05:32:46;;;;;;;7.90;7.00;;;0.80;99.90;;;;;;5038094;28;20180;-73
2022/12/09 05:35:11;;;;;;;8.90;7.33;;;0.80;99.90;;;;;;5055951;28;20193;-72
2022/12/09 05:37:37;;;;;;;9.47;7.70;;;0.80;99.90;;;;;;5038073;28;20170;-74
2022/12/09 05:40:03;;;;;;;8.90;7.10;;;0.90;99.90;;;;;;5038147;28;20665;-74
2022/12/09 05:42:28;;;;;;;7.83;6.77;;;0.90;99.90;;;;;;5037593;28;20170;-73
2022/12/09 05:48:16;;;;;;;8.63;7.73;;;0.80;99.90;;;;;;5076995;28;20234;-73
2022/12/09 05:50:41;;;;;;;8.03;7.23;;;0.90;99.90;;;;;;5072834;28;21921;-72
2022/12/09 05:53:07;;;;;;;9.23;8.27;;;0.90;99.90;;;;;;5055568;28;20528;-73
2022/12/09 05:55:33;;;;;;;11.00;9.50;;;1.00;99.90;;;;;;5055663;28;20208;-73
2022/12/09 05:57:58;;;;;;;11.70;9.03;;;1.00;99.90;;;;;;5055764;28;20255;-73
2022/12/09 06:00:24;;;;;;;10.30;8.87;;;1.00;99.90;;;;;;5055392;28;20171;-74
2022/12/09 06:02:49;;;;;;;11.23;8.23;;;0.90;99.90;;;;;;5055904;28;20169;-73
2022/12/09 06:05:15;;;;;;;12.00;8.67;;;0.90;99.90;;;;;;5056234;28;20607;-73
2022/12/09 06:07:40;;;;;;;9.60;8.60;;;1.00;99.90;;;;;;5055656;28;20563;-74
2022/12/09 06:10:06;;;;;;;11.57;9.30;;;1.00;99.90;;;;;;5055896;28;20175;-74
2022/12/09 06:12:32;;;;;;;12.07;9.30;;;1.10;99.90;;;;;;5055851;28;20208;-73
2022/12/09 06:14:57;;;;;;;10.63;8.57;;;1.00;99.90;;;;;;5059687;28;20488;-73
2022/12/09 06:17:23;;;;;;;11.43;8.63;;;1.00;99.90;;;;;;5078757;28;20176;-73
2022/12/09 06:19:48;;;;;;;11.50;9.10;;;1.00;99.90;;;;;;5059926;28;20312;-73
2022/12/09 06:22:14;;;;;;;9.40;8.13;;;1.00;99.90;;;;;;5077260;28;20183;-72
2022/12/09 06:24:40;;;;;;;11.13;9.40;;;1.00;99.90;;;;;;5060100;28;20240;-74
2022/12/09 06:27:05;;;;;;;12.57;10.33;;;1.00;99.90;;;;;;5060699;28;20328;-74
2022/12/09 06:29:31;;;;;;;15.40;10.40;;;1.00;99.90;;;;;;5077516;28;20169;-74
2022/12/09 06:31:56;;;;;;;10.93;8.70;;;1.10;99.90;;;;;;5075363;28;20253;-71
2022/12/09 06:34:22;;;;;;;11.07;9.27;;;1.10;99.90;;;;;;5075921;28;20186;-72
2022/12/09 06:36:47;;;;;;;12.40;10.57;;;1.20;99.90;;;;;;5077453;28;20223;-74
2022/12/09 06:39:14;;;;;;;11.33;10.07;;;1.20;99.90;;;;;;5059596;28;20166;-74
2022/12/09 06:41:40;;;;;;;10.00;8.93;;;1.20;99.90;;;;;;5057500;28;20587;-74
2022/12/09 06:44:06;;;;;;;12.17;9.30;;;1.20;99.90;;;;;;5054746;28;20454;-74
2022/12/09 06:46:32;;;;;;;13.70;9.63;;;1.20;99.90;;;;;;5035060;28;20445;-74
2022/12/09 06:48:57;;;;;;;10.20;9.13;;;1.20;99.90;;;;;;5034844;28;20699;-74
2022/12/09 06:51:24;;;;;;;10.27;9.17;;;1.20;99.90;;;;;;5023306;28;20174;-74
2022/12/09 06:53:50;;;;;;;12.80;10.90;;;1.30;99.90;;;;;;5074543;28;20185;-74
2022/12/09 06:56:16;;;;;;;12.43;10.40;;;1.30;99.90;;;;;;5029400;28;20928;-74
2022/12/09 06:58:44;;;;;;;11.30;10.10;;;1.30;99.90;;;;;;5034806;28;20892;-75
2022/12/09 07:01:14;;;;;;;13.53;11.70;;;1.30;99.90;;;;;;5035195;28;20417;-73
2022/12/09 07:03:41;;;;;;;15.30;11.47;;;1.40;99.90;;;;;;5016993;28;20917;-74
2022/12/09 07:06:22;;;;;;;11.90;10.10;;;1.40;99.90;;;;;;5034759;28;20975;-74
2022/12/09 07:08:47;;;;;;;12.53;10.80;;;1.40;99.90;;;;;;5016576;28;20457;-74
2022/12/09 07:11:13;;;;;;;13.83;10.93;;;1.40;99.90;;;;;;5034866;28;20402;-74
2022/12/09 07:13:38;;;;;;;11.00;9.90;;;1.40;99.90;;;;;;5034151;28;20198;-74
2022/12/09 07:16:04;;;;;;;13.03;10.77;;;1.50;99.90;;;;;;5016364;28;20162;-74
2022/12/09 07:18:30;;;;;;;14.03;10.83;;;1.50;99.90;;;;;;5034113;28;20626;-74
2022/12/09 07:20:55;;;;;;;11.87;10.30;;;1.50;99.90;;;;;;5016547;28;20212;-74
2022/12/09 07:23:21;;;;;;;13.40;10.20;;;1.60;99.90;;;;;;5071021;28;20170;-74
2022/12/09 07:25:57;;;;;;;12.50;9.90;;;1.70;99.90;;;;;;5075065;28;20558;-73
2022/12/09 07:28:23;;;;;;;12.53;11.23;;;1.70;99.90;;;;;;5075364;28;20226;-74
2022/12/09 07:30:48;;;;;;;16.00;10.80;;;1.70;99.90;;;;;;5075311;28;20428;-74
2022/12/09 07:33:14;;;;;;;11.30;10.20;;;1.80;99.90;;;;;;5057269;28;20173;-73
2022/12/09 07:35:39;;;;;;;13.60;10.37;;;1.80;99.90;;;;;;5075586;28;20193;-74
2022/12/09 07:38:05;;;;;;;12.80;10.60;;;1.90;99.90;;;;;;5056667;28;20178;-74
2022/12/09 07:40:30;;;;;;;11.67;10.33;;;2.00;99.90;;;;;;5074965;28;20223;-73
2022/12/09 07:42:56;;;;;;;17.40;12.93;;;2.00;99.90;;;;;;5056749;28;20239;-73
2022/12/09 07:45:22;;;;;;;14.40;11.23;;;2.00;99.90;;;;;;5075726;28;20197;-74
2022/12/09 07:47:47;;;;;;;12.33;11.03;;;2.10;99.90;;;;;;5044602;28;20213;-73
2022/12/09 07:50:13;;;;;;;15.47;12.90;;;2.10;99.90;;;;;;5053696;28;20258;-73
2022/12/09 07:52:38;;;;;;;12.90;11.10;;;2.20;99.90;;;;;;5048529;28;20209;-74
2022/12/09 07:55:04;;;;;;;12.63;11.00;;;2.20;99.90;;;;;;5074206;28;20193;-74
2022/12/09 07:57:30;;;;;;;13.17;10.20;;;2.40;99.90;;;;;;5056856;28;20177;-74
2022/12/09 07:59:56;;;;;;;14.80;10.63;;;2.50;99.90;;;;;;5057852;28;20828;-74
2022/12/09 08:02:21;;;;;;;16.70;11.97;;;2.40;99.90;;;;;;5075591;28;20166;-75
2022/12/09 08:04:47;;;;;;;13.13;10.67;;;2.40;99.90;;;;;;5075713;28;20186;-74
2022/12/09 08:07:12;;;;;;;13.37;10.70;;;2.40;99.90;;;;;;5075749;28;20189;-74
2022/12/09 08:09:38;;;;;;;12.30;10.43;;;2.50;99.90;;;;;;5077848;28;20542;-74
2022/12/09 08:12:03;;;;;;;12.67;9.77;;;2.50;99.90;;;;;;5077572;28;20639;-73
2022/12/09 08:14:29;;;;;;;12.00;10.10;;;2.60;99.90;;;;;;5076912;28;20212;-74
2022/12/09 08:16:55;;;;;;;13.60;11.07;;;2.80;99.90;;;;;;5075036;28;20177;-74
2022/12/09 08:19:20;;;;;;;17.57;11.73;;;2.90;99.90;;;;;;5073732;28;20173;-74
2022/12/09 08:21:46;;;;;;;12.60;9.80;;;3.00;99.90;;;;;;5072511;28;20178;-74
2022/12/09 08:24:11;;;;;;;13.50;12.20;;;3.00;99.90;;;;;;5073618;28;20186;-74
2022/12/09 08:26:38;;;;;;;13.37;11.17;;;3.00;99.90;;;;;;5073554;28;20272;-74
2022/12/09 08:29:11;;;;;;;16.23;11.30;;;3.10;99.90;;;;;;5056452;28;20708;-74
2022/12/09 08:31:39;;;;;;;14.73;11.47;;;2.80;99.90;;;;;;5073544;28;20744;-73
2022/12/09 08:34:04;;;;;;;14.80;11.83;;;2.20;99.90;;;;;;5073314;28;20416;-73
2022/12/09 08:36:31;;;;;;;18.83;12.33;;;2.10;99.90;;;;;;5073029;28;20400;-74
2022/12/09 08:39:00;;;;;;;19.17;13.97;;;2.20;99.90;;;;;;5072550;28;20174;-74
2022/12/09 08:41:34;;;;;;;14.03;11.57;;;2.40;99.90;;;;;;5072992;28;20408;-74
2022/12/09 08:44:05;;;;;;;15.90;11.87;;;2.70;99.90;;;;;;5072934;28;20424;-74
2022/12/09 08:46:32;;;;;;;14.93;13.33;;;2.80;99.90;;;;;;5073277;28;20527;-74
2022/12/09 08:49:00;;;;;;;14.47;12.53;;;2.90;99.90;;;;;;5073846;28;20468;-74
2022/12/09 08:51:26;;;;;;;15.77;12.70;;;2.80;99.90;;;;;;5072693;28;20411;-73
2022/12/09 08:53:52;;;;;;;13.30;12.00;;;2.70;99.90;;;;;;5072497;28;21007;-74
2022/12/09 08:56:17;;;;;;;14.10;12.43;;;2.30;99.90;;;;;;5072714;28;20542;-73
2022/12/09 08:58:43;;;;;;;15.43;12.60;;;2.40;99.90;;;;;;5068232;28;20225;-73
2022/12/09 09:01:20;;;;;;;15.90;14.30;;;2.60;99.90;;;;;;5034200;28;20174;-73
2022/12/09 09:03:47;;;;;;;12.93;11.53;;;2.60;99.90;;;;;;5037835;28;20190;-74
2022/12/09 09:06:14;;;;;;;15.30;12.77;;;2.70;99.90;;;;;;5037891;28;20417;-74
2022/12/09 09:08:39;;;;;;;20.00;12.43;;;2.80;99.90;;;;;;5037619;28;20497;-73
2022/12/09 09:11:10;;;;;;;15.47;13.00;;;2.90;99.90;;;;;;5032693;28;20868;-73
2022/12/09 09:13:38;;;;;;;15.20;13.47;;;3.20;99.90;;;;;;5040132;28;20179;-73
2022/12/09 09:16:04;;;;;;;15.20;13.60;;;2.70;99.90;;;;;;5053385;28;20464;-73
2022/12/09 09:18:29;;;;;;;14.67;12.10;;;2.80;99.90;;;;;;5053173;28;20912;-72
2022/12/09 09:20:57;;;;;;;19.83;15.70;;;2.90;99.90;;;;;;5053041;28;20451;-73
2022/12/09 09:23:24;;;;;;;14.83;12.80;;;2.80;99.90;;;;;;5069246;28;20166;-73
2022/12/09 09:25:50;;;;;;;22.73;14.60;;;2.90;99.90;;;;;;5068517;28;20455;-73
2022/12/09 09:28:15;;;;;;;14.90;13.10;;;2.80;99.90;;;;;;5052470;28;20487;-73
2022/12/09 09:30:41;;;;;;;20.07;12.97;;;2.80;99.90;;;;;;5056187;28;20170;-73
2022/12/09 09:33:07;;;;;;;16.40;13.50;;;2.80;99.90;;;;;;5038006;28;20167;-73
2022/12/09 09:35:33;;;;;;;14.87;12.53;;;3.00;99.90;;;;;;5056308;28;20266;-74
2022/12/09 09:37:58;;;;;;;17.63;14.60;;;3.20;99.90;;;;;;5055601;28;20503;-74
2022/12/09 09:40:26;;;;;;;15.90;13.30;;;3.30;99.90;;;;;;5055875;28;20166;-74
2022/12/09 09:42:54;;;;;;;17.70;13.83;;;3.10;99.90;;;;;;5037917;28;20177;-74
2022/12/09 09:45:22;;;;;;;16.63;14.00;;;3.00;99.90;;;;;;5056397;28;20455;-74
2022/12/09 09:48:03;;;;;;;16.40;13.00;;;3.20;99.90;;;;;;5056738;28;20449;-75
2022/12/09 09:50:42;;;;;;;18.40;13.43;;;3.30;99.90;;;;;;5056986;28;20377;-73
2022/12/09 09:53:29;;;;;;;16.57;12.60;;;3.30;99.90;;;;;;5072073;28;20408;-74
2022/12/09 09:56:01;;;;;;;15.10;13.60;;;2.90;99.90;;;;;;5059111;28;20485;-73
2022/12/09 09:58:55;;;;;;;20.13;16.10;;;3.10;99.90;;;;;;5043733;28;20405;-73
2022/12/09 10:01:24;;;;;;;19.83;13.90;;;3.10;99.90;;;;;;5040614;28;20432;-73
2022/12/09 10:04:13;;;;;;;17.17;14.50;;;3.10;99.90;;;;;;5055439;28;20429;-73
2022/12/09 10:07:00;;;;;;;20.23;14.63;;;3.20;99.90;;;;;;5055300;28;20488;-73
2022/12/09 10:09:48;;;;;;;19.97;14.00;;;2.60;99.90;;;;;;5055550;28;20393;-73
2022/12/09 10:12:36;;;;;;;17.27;14.30;;;2.40;99.90;;;;;;5055185;28;20393;-73
2022/12/09 10:15:14;;;;;;;20.60;15.23;;;2.80;99.90;;;;;;5054782;28;20441;-73
2022/12/09 10:17:52;;;;;;;19.03;14.43;;;2.90;99.90;;;;;;5055350;28;20433;-73
2022/12/09 10:20:27;;;;;;;17.30;14.27;;;2.70;99.90;;;;;;5037351;28;20482;-73
2022/12/09 10:23:02;;;;;;;23.07;16.00;;;3.00;99.90;;;;;;5066936;28;20424;-73
2022/12/09 10:25:36;;;;;;;17.80;14.90;;;3.30;99.90;;;;;;5074996;28;20457;-73
2022/12/09 10:28:07;;;;;;;19.13;15.10;;;3.20;99.90;;;;;;5057089;28;21027;-73
2022/12/09 10:30:33;;;;;;;18.77;15.63;;;3.40;99.90;;;;;;5057474;28;20426;-73
2022/12/09 10:32:59;;;;;;;15.90;14.17;;;3.60;99.90;;;;;;5075151;28;20404;-73
2022/12/09 10:35:27;;;;;;;20.10;15.27;;;3.10;99.90;;;;;;5074867;28;20792;-73
2022/12/09 10:38:03;;;;;;;19.63;15.57;;;2.90;99.90;;;;;;5074115;28;20495;-74
2022/12/09 10:40:49;;;;;;;21.70;16.57;;;3.00;99.90;;;;;;5073959;28;20397;-74
2022/12/09 10:43:34;;;;;;;18.93;15.07;;;3.20;99.90;;;;;;5075221;28;20392;-74
2022/12/09 10:46:02;;;;;;;18.43;15.00;;;3.30;99.90;;;;;;5074741;28;20399;-74
2022/12/09 10:48:39;;;;;;;18.10;14.53;;;3.20;99.90;;;;;;5075184;28;20903;-74
2022/12/09 10:51:26;;;;;;;17.97;14.63;;;3.20;99.90;;;;;;5074730;28;20384;-74
2022/12/09 10:54:10;;;;;;;17.67;15.10;;;3.20;99.90;;;;;;5073992;28;20520;-74
2022/12/09 10:56:39;;;;;;;16.60;14.80;;;2.80;99.90;;;;;;5074555;28;20436;-74
2022/12/09 10:59:18;;;;;;;23.50;15.20;;;2.60;99.90;;;;;;5056407;28;20832;-74
2022/12/09 11:01:57;;;;;;;22.07;16.73;;;2.60;99.90;;;;;;5074599;28;20388;-74
2022/12/09 11:04:29;;;;;;;17.00;14.73;;;2.70;99.90;;;;;;5058522;28;20426;-74
2022/12/09 11:07:00;;;;;;;18.27;14.73;;;2.90;99.90;;;;;;5053897;28;20451;-74
2022/12/09 11:09:32;;;;;;;20.50;16.90;;;3.30;99.90;;;;;;5054994;28;20386;-74
2022/12/09 11:11:59;;;;;;;18.50;15.77;;;3.50;99.90;;;;;;5054650;28;20480;-74
2022/12/09 11:14:30;;;;;;;19.80;16.17;;;3.50;99.90;;;;;;5053947;28;20444;-74
2022/12/09 11:17:21;;;;;;;18.70;15.87;;;3.70;99.90;;;;;;5054385;28;20409;-73
2022/12/09 11:19:52;;;;;;;22.40;17.67;;;3.70;99.90;;;;;;5054305;28;20454;-73
2022/12/09 11:22:27;;;;;;;20.10;15.43;;;3.70;99.90;;;;;;5050113;28;20429;-74
2022/12/09 11:24:54;;;;;;;17.43;14.87;;;3.60;99.90;;;;;;5043116;28;20414;-73
2022/12/09 11:27:33;;;;;;;29.77;16.80;;;3.30;99.90;;;;;;5043092;28;20438;-74
2022/12/09 11:30:19;;;;;;;24.57;17.30;;;3.40;99.90;;;;;;5042746;28;20920;-74
2022/12/09 11:33:14;;;;;;;19.50;16.30;;;3.60;99.90;;;;;;5025946;28;20409;-73
2022/12/09 11:35:42;;;;;;;19.90;15.97;;;3.10;99.90;;;;;;5051105;28;20432;-73
2022/12/09 11:38:35;;;;;;;17.07;15.20;;;3.40;99.90;;;;;;5053209;28;20412;-73
2022/12/09 11:41:12;;;;;;;20.67;17.73;;;3.50;99.90;;;;;;5053607;28;20938;-74
2022/12/09 11:43:53;;;;;;;20.03;16.13;;;3.20;99.90;;;;;;5054279;28;20382;-74
2022/12/09 11:46:25;;;;;;;23.77;17.83;;;3.30;99.90;;;;;;5053557;28;20384;-74
2022/12/09 11:48:58;;;;;;;23.90;17.53;;;3.70;99.90;;;;;;5053590;28;20489;-74
2022/12/09 11:51:31;;;;;;;20.90;17.43;;;3.80;99.90;;;;;;5053636;28;20443;-74
2022/12/09 11:54:04;;;;;;;24.53;19.43;;;3.80;99.90;;;;;;5053459;28;20432;-74
2022/12/09 11:56:32;;;;;;;19.20;16.83;;;3.90;99.90;;;;;;5051438;28;20891;-73
2022/12/09 11:59:17;;;;;;;19.33;16.50;;;4.00;99.90;;;;;;5053278;28;20509;-73
2022/12/09 12:02:00;;;;;;;22.50;17.77;;;3.80;99.90;;;;;;5053542;28;20957;-73
2022/12/09 12:04:40;;;;;;;21.40;16.97;;;3.60;99.90;;;;;;5053747;28;20429;-74
2022/12/09 12:07:16;;;;;;;22.13;16.47;;;3.80;99.90;;;;;;5053736;28;20785;-72
2022/12/09 12:09:55;;;;;;;25.67;17.40;;;4.10;99.90;;;;;;5053618;28;20380;-74
2022/12/09 12:12:45;;;;;;;22.17;18.07;;;4.20;99.90;;;;;;5053155;28;20401;-74
2022/12/09 12:15:27;;;;;;;23.60;17.83;;;4.10;99.90;;;;;;5053238;28;21008;-73
2022/12/09 12:17:55;;;;;;;18.73;16.73;;;4.20;99.90;;;;;;5053400;28;20388;-73
2022/12/09 12:20:33;;;;;;;21.03;17.43;;;3.90;99.90;;;;;;5053256;28;20409;-72
2022/12/09 12:23:09;;;;;;;20.67;17.80;;;4.10;99.90;;;;;;5064819;28;20424;-73
2022/12/09 12:25:38;;;;;;;21.20;17.83;;;3.80;99.90;;;;;;5055453;28;20440;-75
2022/12/09 12:28:40;;;;;;;22.40;17.27;;;3.90;99.90;;;;;;5073011;28;20455;-73
2022/12/09 12:31:23;;;;;;;20.00;16.73;;;4.10;99.90;;;;;;5043460;28;20394;-74
2022/12/09 12:34:11;;;;;;;18.57;16.57;;;4.10;99.90;;;;;;5025972;28;20454;-73
2022/12/09 12:37:06;;;;;;;19.43;17.17;;;4.10;99.90;;;;;;5041613;28;20393;-74
2022/12/09 12:40:05;;;;;;;22.50;17.87;;;3.80;99.90;;;;;;5044078;28;20412;-72
2022/12/09 12:46:15;;;;;;;20.97;17.77;;;3.80;99.90;;;;;;5018288;28;20398;-73
2022/12/09 12:48:43;;;;;;;24.37;17.63;;;3.80;99.90;;;;;;5032761;28;20496;-74
2022/12/09 12:51:59;;;;;;;24.10;17.60;;;3.60;99.90;;;;;;5033478;28;20397;-73
2022/12/09 12:54:33;;;;;;;22.40;17.60;;;3.70;99.90;;;;;;4971801;28;20436;-74
2022/12/09 12:57:22;;;;;;;31.10;18.50;;;3.90;99.90;;;;;;4972410;28;20488;-73
2022/12/09 13:00:00;;;;;;;23.07;18.00;;;4.00;99.90;;;;;;5018882;28;20456;-74
2022/12/09 13:02:40;;;;;;;20.37;18.03;;;4.00;99.90;;;;;;5015183;28;20404;-73
2022/12/09 13:05:16;;;;;;;20.53;17.13;;;4.20;99.90;;;;;;5037365;28;20508;-73
2022/12/09 13:08:00;;;;;;;20.40;18.03;;;4.10;99.90;;;;;;5045882;28;20459;-73
2022/12/09 13:10:42;;;;;;;20.73;17.00;;;4.10;99.90;;;;;;5057415;28;20377;-73